sensor_id;sensor_type;location;lat;lon;timestamp;pressure;altitude;pressure_sealevel;temperature;humidity
64115;BME280;62188;35.640;139.748;2022-11-23T00:01:20;101967.49;;;18.37;42.46
64115;BME280;62188;35.640;139.748;2022-11-23T00:03:45;101972.36;;;18.45;42.13
64115;BME280;62188;35.640;139.748;2022-11-23T00:06:10;101975.98;;;18.44;42.10
64115;BME280;62188;35.640;139.748;2022-11-23T00:08:35;101977.34;;;18.51;42.04
64115;BME280;62188;35.640;139.748;2022-11-23T00:11:01;101975.51;;;18.53;42.08
64115;BME280;62188;35.640;139.748;2022-11-23T00:13:26;101975.33;;;18.52;41.63
64115;BME280;62188;35.640;139.748;2022-11-23T00:15:51;101974.40;;;18.59;41.84
64115;BME280;62188;35.640;139.748;2022-11-23T00:18:17;101970.67;;;18.63;42.05
64115;BME280;62188;35.640;139.748;2022-11-23T00:20:42;101966.10;;;18.64;42.03
64115;BME280;62188;35.640;139.748;2022-11-23T00:23:09;101963.37;;;18.66;42.13
64115;BME280;62188;35.640;139.748;2022-11-23T00:25:34;101958.05;;;18.40;41.87
64115;BME280;62188;35.640;139.748;2022-11-23T00:27:59;101940.97;;;18.63;41.77
64115;BME280;62188;35.640;139.748;2022-11-23T00:30:24;101928.32;;;18.54;42.10
64115;BME280;62188;35.640;139.748;2022-11-23T00:32:50;101917.74;;;18.61;42.23
64115;BME280;62188;35.640;139.748;2022-11-23T00:35:16;101906.54;;;18.67;42.27
64115;BME280;62188;35.640;139.748;2022-11-23T00:37:41;101896.90;;;18.44;42.09
64115;BME280;62188;35.640;139.748;2022-11-23T00:40:08;101895.27;;;18.58;41.92
64115;BME280;62188;35.640;139.748;2022-11-23T00:42:32;101890.42;;;18.38;42.29
64115;BME280;62188;35.640;139.748;2022-11-23T00:44:58;101892.77;;;18.21;42.44
64115;BME280;62188;35.640;139.748;2022-11-23T00:47:23;101886.11;;;18.08;42.61
64115;BME280;62188;35.640;139.748;2022-11-23T00:49:49;101881.72;;;18.08;42.49
64115;BME280;62188;35.640;139.748;2022-11-23T00:52:14;101880.10;;;18.16;42.60
64115;BME280;62188;35.640;139.748;2022-11-23T00:54:39;101873.06;;;18.16;42.67
64115;BME280;62188;35.640;139.748;2022-11-23T00:57:05;101868.94;;;18.15;42.84
64115;BME280;62188;35.640;139.748;2022-11-23T00:59:30;101864.68;;;18.06;42.50
64115;BME280;62188;35.640;139.748;2022-11-23T01:01:56;101861.13;;;18.09;42.79
64115;BME280;62188;35.640;139.748;2022-11-23T01:04:22;101857.25;;;18.13;42.80
64115;BME280;62188;35.640;139.748;2022-11-23T01:06:47;101859.98;;;18.21;42.79
64115;BME280;62188;35.640;139.748;2022-11-23T01:09:15;101859.01;;;18.23;42.69
64115;BME280;62188;35.640;139.748;2022-11-23T01:11:38;101855.26;;;18.14;42.60
64115;BME280;62188;35.640;139.748;2022-11-23T01:14:04;101852.69;;;18.67;42.56
64115;BME280;62188;35.640;139.748;2022-11-23T01:16:31;101843.81;;;18.19;42.60
64115;BME280;62188;35.640;139.748;2022-11-23T01:18:55;101840.78;;;18.23;42.67
64115;BME280;62188;35.640;139.748;2022-11-23T01:21:20;101831.72;;;18.25;42.71
64115;BME280;62188;35.640;139.748;2022-11-23T01:23:46;101829.67;;;18.32;42.84
64115;BME280;62188;35.640;139.748;2022-11-23T01:26:11;101828.94;;;18.32;42.79
64115;BME280;62188;35.640;139.748;2022-11-23T01:28:38;101827.25;;;18.19;43.52
64115;BME280;62188;35.640;139.748;2022-11-23T01:31:08;101819.92;;;18.14;43.47
64115;BME280;62188;35.640;139.748;2022-11-23T01:33:27;101824.99;;;18.12;44.24
64115;BME280;62188;35.640;139.748;2022-11-23T01:35:52;101821.10;;;18.17;43.92
64115;BME280;62188;35.640;139.748;2022-11-23T01:38:17;101816.29;;;18.09;43.21
64115;BME280;62188;35.640;139.748;2022-11-23T01:40:43;101812.75;;;18.27;43.36
64115;BME280;62188;35.640;139.748;2022-11-23T01:43:15;101807.32;;;18.01;42.52
64115;BME280;62188;35.640;139.748;2022-11-23T01:45:38;101803.30;;;17.87;42.65
64115;BME280;62188;35.640;139.748;2022-11-23T01:47:59;101805.92;;;17.74;42.34
64115;BME280;62188;35.640;139.748;2022-11-23T01:50:25;101805.14;;;17.72;42.82
64115;BME280;62188;35.640;139.748;2022-11-23T01:52:50;101800.07;;;18.09;42.97
64115;BME280;62188;35.640;139.748;2022-11-23T01:55:17;101800.57;;;17.96;42.66
64115;BME280;62188;35.640;139.748;2022-11-23T01:57:42;101797.00;;;18.21;42.53
64115;BME280;62188;35.640;139.748;2022-11-23T02:00:07;101795.18;;;17.79;42.43
64115;BME280;62188;35.640;139.748;2022-11-23T02:02:33;101791.84;;;18.10;42.56
64115;BME280;62188;35.640;139.748;2022-11-23T02:04:59;101785.53;;;18.17;42.57
64115;BME280;62188;35.640;139.748;2022-11-23T02:07:24;101777.22;;;18.24;42.45
64115;BME280;62188;35.640;139.748;2022-11-23T02:09:49;101765.93;;;18.25;42.19
64115;BME280;62188;35.640;139.748;2022-11-23T02:12:15;101756.10;;;18.00;42.04
64115;BME280;62188;35.640;139.748;2022-11-23T02:14:40;101747.54;;;18.20;41.66
64115;BME280;62188;35.640;139.748;2022-11-23T02:17:07;101736.77;;;18.12;41.72
64115;BME280;62188;35.640;139.748;2022-11-23T02:19:35;101731.99;;;17.82;41.44
64115;BME280;62188;35.640;139.748;2022-11-23T02:21:57;101728.36;;;17.89;41.38
64115;BME280;62188;35.640;139.748;2022-11-23T02:24:27;101731.30;;;17.74;41.61
64115;BME280;62188;35.640;139.748;2022-11-23T02:26:48;101727.93;;;17.92;41.69
64115;BME280;62188;35.640;139.748;2022-11-23T02:29:17;101720.47;;;17.76;41.82
64115;BME280;62188;35.640;139.748;2022-11-23T02:31:41;101721.65;;;17.60;42.59
64115;BME280;62188;35.640;139.748;2022-11-23T02:34:04;101715.04;;;17.26;42.74
64115;BME280;62188;35.640;139.748;2022-11-23T02:36:36;101713.29;;;17.22;43.29
64115;BME280;62188;35.640;139.748;2022-11-23T02:38:57;101718.65;;;17.48;43.32
64115;BME280;62188;35.640;139.748;2022-11-23T02:41:22;101715.45;;;17.22;43.54
64115;BME280;62188;35.640;139.748;2022-11-23T02:43:48;101710.12;;;17.41;43.58
64115;BME280;62188;35.640;139.748;2022-11-23T02:46:12;101707.65;;;17.49;43.71
64115;BME280;62188;35.640;139.748;2022-11-23T02:48:38;101697.20;;;17.33;43.40
64115;BME280;62188;35.640;139.748;2022-11-23T02:51:03;101684.74;;;17.56;42.74
64115;BME280;62188;35.640;139.748;2022-11-23T02:53:29;101676.61;;;17.61;42.74
64115;BME280;62188;35.640;139.748;2022-11-23T02:55:56;101674.54;;;17.59;42.40
64115;BME280;62188;35.640;139.748;2022-11-23T02:58:22;101669.89;;;17.55;42.26
64115;BME280;62188;35.640;139.748;2022-11-23T03:00:49;101670.06;;;17.48;42.01
64115;BME280;62188;35.640;139.748;2022-11-23T03:03:11;101658.25;;;17.43;42.12
64115;BME280;62188;35.640;139.748;2022-11-23T03:05:37;101640.18;;;16.89;42.46
64115;BME280;62188;35.640;139.748;2022-11-23T03:08:03;101635.33;;;17.06;42.86
64115;BME280;62188;35.640;139.748;2022-11-23T03:10:28;101630.39;;;17.10;42.97
64115;BME280;62188;35.640;139.748;2022-11-23T03:12:56;101623.25;;;17.20;42.85
64115;BME280;62188;35.640;139.748;2022-11-23T03:15:20;101605.41;;;17.33;43.22
64115;BME280;62188;35.640;139.748;2022-11-23T03:17:45;101604.83;;;17.31;42.91
64115;BME280;62188;35.640;139.748;2022-11-23T03:20:11;101601.82;;;17.36;43.08
64115;BME280;62188;35.640;139.748;2022-11-23T03:22:36;101599.05;;;17.22;43.21
64115;BME280;62188;35.640;139.748;2022-11-23T03:25:02;101598.03;;;17.37;42.69
64115;BME280;62188;35.640;139.748;2022-11-23T03:27:27;101607.86;;;17.13;42.64
64115;BME280;62188;35.640;139.748;2022-11-23T03:29:54;101606.47;;;17.36;42.58
64115;BME280;62188;35.640;139.748;2022-11-23T03:32:19;101599.23;;;17.30;42.68
64115;BME280;62188;35.640;139.748;2022-11-23T03:34:44;101590.71;;;17.37;42.91
64115;BME280;62188;35.640;139.748;2022-11-23T03:37:10;101584.87;;;17.36;43.02
64115;BME280;62188;35.640;139.748;2022-11-23T03:39:36;101579.35;;;17.36;43.05
64115;BME280;62188;35.640;139.748;2022-11-23T03:42:01;101577.69;;;17.48;43.09
64115;BME280;62188;35.640;139.748;2022-11-23T03:44:28;101572.29;;;17.61;43.16
64115;BME280;62188;35.640;139.748;2022-11-23T03:46:58;101564.51;;;17.59;42.70
64115;BME280;62188;35.640;139.748;2022-11-23T03:49:19;101564.33;;;17.61;42.78
64115;BME280;62188;35.640;139.748;2022-11-23T03:51:50;101564.81;;;17.63;42.77
64115;BME280;62188;35.640;139.748;2022-11-23T03:54:09;101562.53;;;17.63;42.64
64115;BME280;62188;35.640;139.748;2022-11-23T03:56:34;101561.47;;;17.68;42.64
64115;BME280;62188;35.640;139.748;2022-11-23T03:58:59;101559.08;;;17.45;42.60
64115;BME280;62188;35.640;139.748;2022-11-23T04:01:25;101559.15;;;17.48;42.60
64115;BME280;62188;35.640;139.748;2022-11-23T04:03:51;101550.06;;;17.49;42.36
64115;BME280;62188;35.640;139.748;2022-11-23T04:06:18;101548.81;;;17.37;42.56
64115;BME280;62188;35.640;139.748;2022-11-23T04:08:44;101545.70;;;17.35;42.60
64115;BME280;62188;35.640;139.748;2022-11-23T04:11:08;101543.40;;;17.36;42.98
64115;BME280;62188;35.640;139.748;2022-11-23T04:13:33;101536.10;;;17.43;42.95
64115;BME280;62188;35.640;139.748;2022-11-23T04:15:59;101544.38;;;17.39;42.90
64115;BME280;62188;35.640;139.748;2022-11-23T04:18:25;101535.73;;;17.41;42.97
64115;BME280;62188;35.640;139.748;2022-11-23T04:20:50;101519.81;;;17.50;43.25
64115;BME280;62188;35.640;139.748;2022-11-23T04:23:15;101505.38;;;17.54;44.36
64115;BME280;62188;35.640;139.748;2022-11-23T04:25:41;101505.62;;;17.57;45.26
64115;BME280;62188;35.640;139.748;2022-11-23T04:28:07;101495.13;;;17.54;45.73
64115;BME280;62188;35.640;139.748;2022-11-23T04:30:36;101490.70;;;17.56;44.34
64115;BME280;62188;35.640;139.748;2022-11-23T04:32:57;101478.60;;;17.46;44.88
64115;BME280;62188;35.640;139.748;2022-11-23T04:35:23;101460.17;;;17.39;44.33
64115;BME280;62188;35.640;139.748;2022-11-23T04:37:49;101443.66;;;17.42;44.12
64115;BME280;62188;35.640;139.748;2022-11-23T04:40:14;101436.15;;;17.46;43.98
64115;BME280;62188;35.640;139.748;2022-11-23T04:42:40;101440.66;;;17.44;43.67
64115;BME280;62188;35.640;139.748;2022-11-23T04:45:06;101448.30;;;17.50;43.81
64115;BME280;62188;35.640;139.748;2022-11-23T04:47:31;101448.96;;;17.54;43.76
64115;BME280;62188;35.640;139.748;2022-11-23T04:49:56;101455.80;;;17.52;42.93
64115;BME280;62188;35.640;139.748;2022-11-23T04:52:22;101457.06;;;17.29;42.99
64115;BME280;62188;35.640;139.748;2022-11-23T04:54:47;101463.49;;;17.52;42.51
64115;BME280;62188;35.640;139.748;2022-11-23T04:57:13;101458.73;;;17.47;42.84
64115;BME280;62188;35.640;139.748;2022-11-23T04:59:38;101444.17;;;17.42;42.92
64115;BME280;62188;35.640;139.748;2022-11-23T05:02:03;101438.85;;;17.20;43.32
64115;BME280;62188;35.640;139.748;2022-11-23T05:04:29;101442.85;;;17.24;43.37
64115;BME280;62188;35.640;139.748;2022-11-23T05:06:55;101431.11;;;17.04;43.68
64115;BME280;62188;35.640;139.748;2022-11-23T05:09:20;101412.83;;;17.32;43.61
64115;BME280;62188;35.640;139.748;2022-11-23T05:11:46;101398.04;;;17.37;43.35
64115;BME280;62188;35.640;139.748;2022-11-23T05:14:12;101405.43;;;17.31;43.38
64115;BME280;62188;35.640;139.748;2022-11-23T05:16:37;101404.88;;;17.29;43.32
64115;BME280;62188;35.640;139.748;2022-11-23T05:19:04;101382.16;;;17.16;43.19
64115;BME280;62188;35.640;139.748;2022-11-23T05:21:28;101364.41;;;17.10;43.40
64115;BME280;62188;35.640;139.748;2022-11-23T05:23:53;101365.31;;;17.16;43.66
64115;BME280;62188;35.640;139.748;2022-11-23T05:26:19;101375.20;;;16.89;43.25
64115;BME280;62188;35.640;139.748;2022-11-23T05:28:44;101375.25;;;17.04;43.49
64115;BME280;62188;35.640;139.748;2022-11-23T05:31:10;101367.96;;;16.87;43.98
64115;BME280;62188;35.640;139.748;2022-11-23T05:33:35;101370.88;;;17.20;44.29
64115;BME280;62188;35.640;139.748;2022-11-23T05:36:00;101362.04;;;16.79;43.66
64115;BME280;62188;35.640;139.748;2022-11-23T05:38:26;101345.33;;;17.08;43.85
64115;BME280;62188;35.640;139.748;2022-11-23T05:40:51;101350.43;;;16.86;43.62
64115;BME280;62188;35.640;139.748;2022-11-23T05:43:16;101347.96;;;16.95;43.88
64115;BME280;62188;35.640;139.748;2022-11-23T05:45:42;101345.55;;;16.67;44.02
64115;BME280;62188;35.640;139.748;2022-11-23T05:48:08;101350.43;;;16.64;44.14
64115;BME280;62188;35.640;139.748;2022-11-23T05:50:33;101348.74;;;17.21;44.33
64115;BME280;62188;35.640;139.748;2022-11-23T05:52:59;101339.43;;;17.09;44.30
64115;BME280;62188;35.640;139.748;2022-11-23T05:55:25;101354.78;;;17.37;44.28
64115;BME280;62188;35.640;139.748;2022-11-23T05:57:56;101324.20;;;16.83;44.07
64115;BME280;62188;35.640;139.748;2022-11-23T06:00:17;101334.71;;;16.73;43.90
64115;BME280;62188;35.640;139.748;2022-11-23T06:02:41;101331.14;;;16.57;44.24
64115;BME280;62188;35.640;139.748;2022-11-23T06:05:08;101336.69;;;16.49;44.67
64115;BME280;62188;35.640;139.748;2022-11-23T06:07:33;101330.87;;;16.80;44.87
64115;BME280;62188;35.640;139.748;2022-11-23T06:09:57;101335.22;;;16.58;44.55
64115;BME280;62188;35.640;139.748;2022-11-23T06:12:23;101328.39;;;16.60;45.10
64115;BME280;62188;35.640;139.748;2022-11-23T06:14:49;101325.57;;;16.87;45.23
64115;BME280;62188;35.640;139.748;2022-11-23T06:17:14;101347.45;;;16.33;44.99
64115;BME280;62188;35.640;139.748;2022-11-23T06:19:40;101353.31;;;16.74;45.29
64115;BME280;62188;35.640;139.748;2022-11-23T06:22:05;101337.22;;;16.73;45.33
64115;BME280;62188;35.640;139.748;2022-11-23T06:24:31;101329.41;;;16.49;45.61
64115;BME280;62188;35.640;139.748;2022-11-23T06:26:56;101320.09;;;16.32;45.86
64115;BME280;62188;35.640;139.748;2022-11-23T06:29:22;101300.09;;;16.02;45.96
64115;BME280;62188;35.640;139.748;2022-11-23T06:31:47;101289.75;;;16.29;46.25
64115;BME280;62188;35.640;139.748;2022-11-23T06:34:13;101286.57;;;16.10;46.06
64115;BME280;62188;35.640;139.748;2022-11-23T06:36:39;101284.21;;;16.12;46.12
64115;BME280;62188;35.640;139.748;2022-11-23T06:39:04;101294.33;;;16.32;46.29
64115;BME280;62188;35.640;139.748;2022-11-23T06:41:30;101294.11;;;16.52;46.28
64115;BME280;62188;35.640;139.748;2022-11-23T06:43:55;101323.18;;;16.65;45.70
64115;BME280;62188;35.640;139.748;2022-11-23T06:46:21;101346.97;;;16.47;45.50
64115;BME280;62188;35.640;139.748;2022-11-23T06:48:47;101356.19;;;16.56;45.51
64115;BME280;62188;35.640;139.748;2022-11-23T06:51:13;101371.14;;;16.52;45.14
64115;BME280;62188;35.640;139.748;2022-11-23T06:53:38;101368.82;;;16.61;45.14
64115;BME280;62188;35.640;139.748;2022-11-23T06:56:04;101342.46;;;16.44;44.87
64115;BME280;62188;35.640;139.748;2022-11-23T06:58:29;101329.38;;;16.42;44.88
64115;BME280;62188;35.640;139.748;2022-11-23T07:00:57;101297.06;;;16.37;45.18
64115;BME280;62188;35.640;139.748;2022-11-23T07:03:22;101279.62;;;16.43;45.50
64115;BME280;62188;35.640;139.748;2022-11-23T07:05:45;101264.85;;;16.54;45.36
64115;BME280;62188;35.640;139.748;2022-11-23T07:08:11;101257.88;;;16.60;45.66
64115;BME280;62188;35.640;139.748;2022-11-23T07:10:37;101242.59;;;16.53;45.11
64115;BME280;62188;35.640;139.748;2022-11-23T07:13:04;101221.54;;;16.42;45.35
64115;BME280;62188;35.640;139.748;2022-11-23T07:15:28;101219.38;;;16.46;45.54
64115;BME280;62188;35.640;139.748;2022-11-23T07:17:53;101223.02;;;16.51;45.35
64115;BME280;62188;35.640;139.748;2022-11-23T07:20:19;101217.11;;;16.65;45.27
64115;BME280;62188;35.640;139.748;2022-11-23T07:22:44;101212.53;;;16.70;44.90
64115;BME280;62188;35.640;139.748;2022-11-23T07:25:10;101202.02;;;16.75;44.90
64115;BME280;62188;35.640;139.748;2022-11-23T07:27:36;101186.57;;;16.68;44.36
64115;BME280;62188;35.640;139.748;2022-11-23T07:30:01;101181.29;;;16.95;44.77
64115;BME280;62188;35.640;139.748;2022-11-23T07:32:27;101183.92;;;16.50;44.93
64115;BME280;62188;35.640;139.748;2022-11-23T07:34:52;101177.73;;;16.70;44.50
64115;BME280;62188;35.640;139.748;2022-11-23T07:37:18;101183.22;;;16.93;44.71
64115;BME280;62188;35.640;139.748;2022-11-23T07:39:43;101158.49;;;16.73;44.59
64115;BME280;62188;35.640;139.748;2022-11-23T07:42:09;101157.12;;;16.38;44.84
64115;BME280;62188;35.640;139.748;2022-11-23T07:44:34;101170.05;;;16.70;45.03
64115;BME280;62188;35.640;139.748;2022-11-23T07:47:00;101158.20;;;16.53;45.04
64115;BME280;62188;35.640;139.748;2022-11-23T07:49:25;101158.00;;;16.82;44.71
64115;BME280;62188;35.640;139.748;2022-11-23T07:51:51;101165.06;;;16.60;44.91
64115;BME280;62188;35.640;139.748;2022-11-23T07:54:17;101153.40;;;16.51;44.63
64115;BME280;62188;35.640;139.748;2022-11-23T07:56:42;101168.37;;;16.45;44.70
64115;BME280;62188;35.640;139.748;2022-11-23T07:59:08;101167.47;;;16.51;44.70
64115;BME280;62188;35.640;139.748;2022-11-23T08:01:33;101168.17;;;16.51;44.61
64115;BME280;62188;35.640;139.748;2022-11-23T08:03:59;101162.93;;;16.55;44.32
64115;BME280;62188;35.640;139.748;2022-11-23T08:06:24;101151.95;;;16.61;44.46
64115;BME280;62188;35.640;139.748;2022-11-23T08:08:51;101146.89;;;16.96;44.51
64115;BME280;62188;35.640;139.748;2022-11-23T08:11:15;101139.65;;;16.75;44.24
64115;BME280;62188;35.640;139.748;2022-11-23T08:13:41;101154.91;;;16.76;44.20
64115;BME280;62188;35.640;139.748;2022-11-23T08:16:07;101149.94;;;16.73;43.90
64115;BME280;62188;35.640;139.748;2022-11-23T08:18:32;101142.37;;;16.47;44.41
64115;BME280;62188;35.640;139.748;2022-11-23T08:21:00;101116.73;;;16.70;44.59
64115;BME280;62188;35.640;139.748;2022-11-23T08:23:23;101111.85;;;16.39;44.16
64115;BME280;62188;35.640;139.748;2022-11-23T08:25:49;101105.22;;;16.25;44.08
64115;BME280;62188;35.640;139.748;2022-11-23T08:28:15;101099.37;;;16.66;44.24
64115;BME280;62188;35.640;139.748;2022-11-23T08:30:40;101085.45;;;16.47;44.68
64115;BME280;62188;35.640;139.748;2022-11-23T08:33:06;101080.73;;;16.41;44.84
64115;BME280;62188;35.640;139.748;2022-11-23T08:35:33;101077.13;;;16.40;44.67
64115;BME280;62188;35.640;139.748;2022-11-23T08:37:57;101069.07;;;16.49;44.77
64115;BME280;62188;35.640;139.748;2022-11-23T08:40:22;101068.55;;;16.44;44.48
64115;BME280;62188;35.640;139.748;2022-11-23T08:42:48;101059.41;;;16.35;44.50
64115;BME280;62188;35.640;139.748;2022-11-23T08:45:14;101053.49;;;16.43;44.60
64115;BME280;62188;35.640;139.748;2022-11-23T08:47:39;101048.79;;;16.73;44.43
64115;BME280;62188;35.640;139.748;2022-11-23T08:50:05;101048.17;;;16.59;44.40
64115;BME280;62188;35.640;139.748;2022-11-23T08:52:30;101049.98;;;16.61;44.22
64115;BME280;62188;35.640;139.748;2022-11-23T08:54:56;101047.95;;;16.47;44.13
64115;BME280;62188;35.640;139.748;2022-11-23T08:57:21;101043.98;;;16.45;43.88
64115;BME280;62188;35.640;139.748;2022-11-23T08:59:46;101042.53;;;16.71;43.73
64115;BME280;62188;35.640;139.748;2022-11-23T09:02:13;101046.76;;;16.58;43.73
64115;BME280;62188;35.640;139.748;2022-11-23T09:04:40;101037.89;;;16.50;43.71
64115;BME280;62188;35.640;139.748;2022-11-23T09:07:03;101040.20;;;16.46;43.83
64115;BME280;62188;35.640;139.748;2022-11-23T09:09:29;101044.60;;;16.67;43.96
64115;BME280;62188;35.640;139.748;2022-11-23T09:11:54;101057.78;;;16.45;44.30
64115;BME280;62188;35.640;139.748;2022-11-23T09:14:19;101050.01;;;16.58;44.28
64115;BME280;62188;35.640;139.748;2022-11-23T09:16:45;101053.12;;;16.53;44.16
64115;BME280;62188;35.640;139.748;2022-11-23T09:19:13;101018.24;;;16.31;44.38
64115;BME280;62188;35.640;139.748;2022-11-23T09:21:36;101021.58;;;16.25;44.67
64115;BME280;62188;35.640;139.748;2022-11-23T09:24:02;101040.36;;;16.27;44.74
64115;BME280;62188;35.640;139.748;2022-11-23T09:26:27;101031.15;;;16.33;44.81
64115;BME280;62188;35.640;139.748;2022-11-23T09:28:53;101032.21;;;16.40;44.82
64115;BME280;62188;35.640;139.748;2022-11-23T09:31:18;101021.73;;;16.21;44.95
64115;BME280;62188;35.640;139.748;2022-11-23T09:33:44;101019.38;;;16.19;44.91
64115;BME280;62188;35.640;139.748;2022-11-23T09:36:09;101023.69;;;16.21;44.59
64115;BME280;62188;35.640;139.748;2022-11-23T09:38:35;101016.66;;;15.87;44.69
64115;BME280;62188;35.640;139.748;2022-11-23T09:41:09;101015.00;;;16.45;44.95
64115;BME280;62188;35.640;139.748;2022-11-23T09:43:44;101012.10;;;16.19;44.35
64115;BME280;62188;35.640;139.748;2022-11-23T09:45:54;100975.95;;;15.95;44.58
64115;BME280;62188;35.640;139.748;2022-11-23T09:48:33;100974.14;;;15.92;44.86
64115;BME280;62188;35.640;139.748;2022-11-23T09:50:47;100978.42;;;16.25;44.90
64115;BME280;62188;35.640;139.748;2022-11-23T09:53:15;100983.05;;;15.95;44.77
64115;BME280;62188;35.640;139.748;2022-11-23T09:55:38;100988.89;;;15.98;44.88
64115;BME280;62188;35.640;139.748;2022-11-23T09:58:03;100986.59;;;15.58;44.84
64115;BME280;62188;35.640;139.748;2022-11-23T10:00:25;100982.92;;;15.51;45.14
64115;BME280;62188;35.640;139.748;2022-11-23T10:02:50;100968.93;;;15.66;44.94
64115;BME280;62188;35.640;139.748;2022-11-23T10:05:19;100952.61;;;15.31;45.37
64115;BME280;62188;35.640;139.748;2022-11-23T10:07:51;100937.82;;;15.28;45.74
64115;BME280;62188;35.640;139.748;2022-11-23T10:10:18;100927.41;;;15.36;45.63
64115;BME280;62188;35.640;139.748;2022-11-23T10:12:40;100927.51;;;15.06;46.32
64115;BME280;62188;35.640;139.748;2022-11-23T10:15:04;100931.39;;;15.38;46.13
64115;BME280;62188;35.640;139.748;2022-11-23T10:17:42;100931.02;;;15.07;46.63
64115;BME280;62188;35.640;139.748;2022-11-23T10:20:02;100920.83;;;15.14;46.72
64115;BME280;62188;35.640;139.748;2022-11-23T10:22:20;100915.83;;;15.35;46.49
64115;BME280;62188;35.640;139.748;2022-11-23T10:24:45;100896.82;;;15.26;46.63
64115;BME280;62188;35.640;139.748;2022-11-23T10:27:13;100890.74;;;14.98;46.85
64115;BME280;62188;35.640;139.748;2022-11-23T10:29:34;100898.71;;;14.88;47.86
64115;BME280;62188;35.640;139.748;2022-11-23T10:31:58;100891.26;;;15.10;47.93
64115;BME280;62188;35.640;139.748;2022-11-23T10:34:34;100897.02;;;14.88;48.06
64115;BME280;62188;35.640;139.748;2022-11-23T10:36:49;100900.09;;;14.99;47.73
64115;BME280;62188;35.640;139.748;2022-11-23T10:39:19;100911.06;;;15.22;48.10
64115;BME280;62188;35.640;139.748;2022-11-23T10:41:40;100916.79;;;15.13;48.39
64115;BME280;62188;35.640;139.748;2022-11-23T10:44:14;100933.30;;;15.12;47.67
64115;BME280;62188;35.640;139.748;2022-11-23T10:46:37;100939.96;;;15.17;46.84
64115;BME280;62188;35.640;139.748;2022-11-23T10:51:29;100952.96;;;15.53;46.62
64115;BME280;62188;35.640;139.748;2022-11-23T10:53:55;100951.02;;;15.17;46.80
64115;BME280;62188;35.640;139.748;2022-11-23T10:56:14;100943.57;;;15.49;47.35
64115;BME280;62188;35.640;139.748;2022-11-23T10:58:44;100931.10;;;15.36;47.92
64115;BME280;62188;35.640;139.748;2022-11-23T11:01:08;100929.29;;;15.62;46.96
64115;BME280;62188;35.640;139.748;2022-11-23T11:03:33;100935.51;;;15.40;47.10
64115;BME280;62188;35.640;139.748;2022-11-23T11:05:58;100928.37;;;15.50;47.32
64115;BME280;62188;35.640;139.748;2022-11-23T11:08:26;100906.75;;;15.59;46.62
64115;BME280;62188;35.640;139.748;2022-11-23T11:10:48;100891.09;;;15.68;46.97
64115;BME280;62188;35.640;139.748;2022-11-23T11:13:22;100881.24;;;15.72;46.55
64115;BME280;62188;35.640;139.748;2022-11-23T11:15:39;100868.37;;;15.71;46.43
64115;BME280;62188;35.640;139.748;2022-11-23T11:18:15;100866.26;;;15.75;46.48
64115;BME280;62188;35.640;139.748;2022-11-23T11:20:33;100854.19;;;16.08;46.51
64115;BME280;62188;35.640;139.748;2022-11-23T11:22:56;100836.32;;;15.92;46.19
64115;BME280;62188;35.640;139.748;2022-11-23T11:25:30;100816.16;;;15.74;46.26
64115;BME280;62188;35.640;139.748;2022-11-23T11:27:50;100788.05;;;15.87;45.90
64115;BME280;62188;35.640;139.748;2022-11-23T11:32:44;100712.71;;;15.99;46.24
64115;BME280;62188;35.640;139.748;2022-11-23T11:35:11;100681.61;;;15.70;45.58
64115;BME280;62188;35.640;139.748;2022-11-23T11:37:34;100692.46;;;15.68;45.64
64115;BME280;62188;35.640;139.748;2022-11-23T11:40:00;100681.97;;;15.62;45.79
64115;BME280;62188;35.640;139.748;2022-11-23T11:42:29;100666.73;;;15.77;46.02
64115;BME280;62188;35.640;139.748;2022-11-23T11:44:55;100655.46;;;15.84;45.85
64115;BME280;62188;35.640;139.748;2022-11-23T11:47:23;100634.76;;;15.79;45.67
64115;BME280;62188;35.640;139.748;2022-11-23T11:49:41;100623.27;;;15.63;46.02
64115;BME280;62188;35.640;139.748;2022-11-23T11:52:07;100625.97;;;15.88;46.06
64115;BME280;62188;35.640;139.748;2022-11-23T11:54:34;100629.66;;;15.72;46.18
64115;BME280;62188;35.640;139.748;2022-11-23T11:56:59;100623.90;;;15.76;46.25
64115;BME280;62188;35.640;139.748;2022-11-23T11:59:24;100631.13;;;15.86;46.16
64115;BME280;62188;35.640;139.748;2022-11-23T12:01:53;100624.38;;;15.93;45.72
64115;BME280;62188;35.640;139.748;2022-11-23T12:04:14;100629.13;;;16.01;45.88
64115;BME280;62188;35.640;139.748;2022-11-23T12:06:42;100621.68;;;15.53;46.35
64115;BME280;62188;35.640;139.748;2022-11-23T12:09:06;100621.00;;;15.53;46.17
64115;BME280;62188;35.640;139.748;2022-11-23T12:11:28;100636.58;;;15.29;46.63
64115;BME280;62188;35.640;139.748;2022-11-23T12:13:58;100644.32;;;15.68;46.68
64115;BME280;62188;35.640;139.748;2022-11-23T12:16:25;100633.95;;;15.57;46.46
64115;BME280;62188;35.640;139.748;2022-11-23T12:18:58;100611.72;;;15.69;46.38
64115;BME280;62188;35.640;139.748;2022-11-23T12:21:21;100596.04;;;15.60;46.21
64115;BME280;62188;35.640;139.748;2022-11-23T12:23:43;100601.69;;;15.35;46.45
64115;BME280;62188;35.640;139.748;2022-11-23T12:26:09;100612.30;;;15.42;46.68